sensor_id;sensor_type;location;lat;lon;timestamp;P1;durP1;ratioP1;P2;durP2;ratioP2
51288;SDS011;37372;52.294;5.152;2023-04-23T00:01:54;169.40;;;67.50;;
51288;SDS011;37372;52.294;5.152;2023-04-23T00:04:27;160.82;;;66.57;;
51288;SDS011;37372;52.294;5.152;2023-04-23T00:06:58;165.98;;;66.13;;
51288;SDS011;37372;52.294;5.152;2023-04-23T00:09:26;173.52;;;68.32;;
51288;SDS011;37372;52.294;5.152;2023-04-23T00:11:58;165.07;;;69.75;;
51288;SDS011;37372;52.294;5.152;2023-04-23T00:14:26;164.65;;;65.50;;
51288;SDS011;37372;52.294;5.152;2023-04-23T00:16:57;171.15;;;67.78;;
51288;SDS011;37372;52.294;5.152;2023-04-23T00:19:24;165.55;;;66.45;;
51288;SDS011;37372;52.294;5.152;2023-04-23T00:21:53;164.13;;;68.35;;
51288;SDS011;37372;52.294;5.152;2023-04-23T00:24:24;171.65;;;64.93;;
51288;SDS011;37372;52.294;5.152;2023-04-23T00:26:54;165.75;;;70.72;;
51288;SDS011;37372;52.294;5.152;2023-04-23T00:29:26;156.32;;;66.18;;
51288;SDS011;37372;52.294;5.152;2023-04-23T00:31:54;174.15;;;67.47;;
51288;SDS011;37372;52.294;5.152;2023-04-23T00:34:27;154.85;;;65.22;;
51288;SDS011;37372;52.294;5.152;2023-04-23T00:36:56;165.18;;;65.90;;
51288;SDS011;37372;52.294;5.152;2023-04-23T00:39:31;189.65;;;70.72;;
51288;SDS011;37372;52.294;5.152;2023-04-23T00:42:00;173.52;;;67.82;;
51288;SDS011;37372;52.294;5.152;2023-04-23T00:44:34;170.75;;;67.88;;
51288;SDS011;37372;52.294;5.152;2023-04-23T00:47:04;169.63;;;64.88;;
51288;SDS011;37372;52.294;5.152;2023-04-23T00:49:31;178.68;;;66.07;;
51288;SDS011;37372;52.294;5.152;2023-04-23T00:52:03;182.73;;;69.95;;
51288;SDS011;37372;52.294;5.152;2023-04-23T00:54:32;178.98;;;69.68;;
51288;SDS011;37372;52.294;5.152;2023-04-23T00:57:03;169.00;;;65.70;;
51288;SDS011;37372;52.294;5.152;2023-04-23T00:59:32;174.98;;;70.53;;
51288;SDS011;37372;52.294;5.152;2023-04-23T01:02:03;182.18;;;68.40;;
51288;SDS011;37372;52.294;5.152;2023-04-23T01:04:33;177.88;;;67.30;;
51288;SDS011;37372;52.294;5.152;2023-04-23T01:07:07;173.80;;;68.90;;
51288;SDS011;37372;52.294;5.152;2023-04-23T01:09:37;173.50;;;68.00;;
51288;SDS011;37372;52.294;5.152;2023-04-23T01:12:09;168.18;;;66.07;;
51288;SDS011;37372;52.294;5.152;2023-04-23T01:14:39;182.98;;;70.78;;
51288;SDS011;37372;52.294;5.152;2023-04-23T01:17:10;182.65;;;69.75;;
51288;SDS011;37372;52.294;5.152;2023-04-23T01:19:39;175.57;;;66.50;;
51288;SDS011;37372;52.294;5.152;2023-04-23T01:22:12;186.30;;;66.35;;
51288;SDS011;37372;52.294;5.152;2023-04-23T01:24:39;176.82;;;69.43;;
51288;SDS011;37372;52.294;5.152;2023-04-23T01:27:11;180.68;;;67.32;;
51288;SDS011;37372;52.294;5.152;2023-04-23T01:29:41;190.52;;;72.57;;
51288;SDS011;37372;52.294;5.152;2023-04-23T01:32:11;177.57;;;67.65;;
51288;SDS011;37372;52.294;5.152;2023-04-23T01:34:42;179.15;;;70.63;;
51288;SDS011;37372;52.294;5.152;2023-04-23T01:37:17;172.90;;;67.22;;
51288;SDS011;37372;52.294;5.152;2023-04-23T01:39:44;171.63;;;66.57;;
51288;SDS011;37372;52.294;5.152;2023-04-23T01:42:13;167.10;;;68.40;;
51288;SDS011;37372;52.294;5.152;2023-04-23T01:44:44;166.02;;;67.78;;
51288;SDS011;37372;52.294;5.152;2023-04-23T01:47:21;171.82;;;67.90;;
51288;SDS011;37372;52.294;5.152;2023-04-23T01:49:47;161.20;;;65.55;;
51288;SDS011;37372;52.294;5.152;2023-04-23T01:52:23;167.38;;;67.10;;
51288;SDS011;37372;52.294;5.152;2023-04-23T01:54:50;156.35;;;66.20;;
51288;SDS011;37372;52.294;5.152;2023-04-23T01:57:18;157.98;;;65.25;;
51288;SDS011;37372;52.294;5.152;2023-04-23T01:59:51;153.13;;;64.32;;
51288;SDS011;37372;52.294;5.152;2023-04-23T02:02:22;164.55;;;61.45;;
51288;SDS011;37372;52.294;5.152;2023-04-23T02:04:49;145.77;;;60.95;;
51288;SDS011;37372;52.294;5.152;2023-04-23T02:07:19;151.65;;;64.03;;
51288;SDS011;37372;52.294;5.152;2023-04-23T02:09:46;138.13;;;59.17;;
51288;SDS011;37372;52.294;5.152;2023-04-23T02:12:15;150.38;;;62.67;;
51288;SDS011;37372;52.294;5.152;2023-04-23T02:14:49;141.27;;;59.90;;
51288;SDS011;37372;52.294;5.152;2023-04-23T02:17:21;143.93;;;59.45;;
51288;SDS011;37372;52.294;5.152;2023-04-23T02:19:52;155.57;;;60.80;;
51288;SDS011;37372;52.294;5.152;2023-04-23T02:22:28;154.07;;;60.38;;
51288;SDS011;37372;52.294;5.152;2023-04-23T02:24:55;133.93;;;55.20;;
51288;SDS011;37372;52.294;5.152;2023-04-23T02:27:25;135.60;;;55.58;;
51288;SDS011;37372;52.294;5.152;2023-04-23T02:29:51;147.20;;;60.63;;
51288;SDS011;37372;52.294;5.152;2023-04-23T02:32:23;146.27;;;58.38;;
51288;SDS011;37372;52.294;5.152;2023-04-23T02:34:53;134.60;;;55.72;;
51288;SDS011;37372;52.294;5.152;2023-04-23T02:37:25;130.73;;;54.38;;
51288;SDS011;37372;52.294;5.152;2023-04-23T02:39:57;135.30;;;56.33;;
51288;SDS011;37372;52.294;5.152;2023-04-23T02:42:30;139.32;;;53.75;;
51288;SDS011;37372;52.294;5.152;2023-04-23T02:44:59;133.75;;;56.22;;
51288;SDS011;37372;52.294;5.152;2023-04-23T02:47:26;130.60;;;54.63;;
51288;SDS011;37372;52.294;5.152;2023-04-23T02:49:53;119.95;;;52.13;;
51288;SDS011;37372;52.294;5.152;2023-04-23T02:54:58;116.22;;;50.30;;
51288;SDS011;37372;52.294;5.152;2023-04-23T02:57:36;124.95;;;54.08;;
51288;SDS011;37372;52.294;5.152;2023-04-23T03:00:02;118.53;;;50.88;;
51288;SDS011;37372;52.294;5.152;2023-04-23T03:02:32;133.88;;;54.03;;
51288;SDS011;37372;52.294;5.152;2023-04-23T03:04:58;123.43;;;53.85;;
51288;SDS011;37372;52.294;5.152;2023-04-23T03:07:30;119.85;;;50.95;;
51288;SDS011;37372;52.294;5.152;2023-04-23T03:12:31;110.40;;;47.73;;
51288;SDS011;37372;52.294;5.152;2023-04-23T03:15:01;118.68;;;48.35;;
51288;SDS011;37372;52.294;5.152;2023-04-23T03:17:31;120.28;;;51.15;;
51288;SDS011;37372;52.294;5.152;2023-04-23T03:20:02;110.55;;;48.45;;
51288;SDS011;37372;52.294;5.152;2023-04-23T03:22:32;108.80;;;47.80;;
51288;SDS011;37372;52.294;5.152;2023-04-23T03:25:10;112.93;;;47.15;;
51288;SDS011;37372;52.294;5.152;2023-04-23T03:27:39;100.35;;;46.92;;
51288;SDS011;37372;52.294;5.152;2023-04-23T03:30:05;108.80;;;48.28;;
51288;SDS011;37372;52.294;5.152;2023-04-23T03:32:36;99.60;;;46.35;;
51288;SDS011;37372;52.294;5.152;2023-04-23T03:35:03;85.22;;;43.35;;
51288;SDS011;37372;52.294;5.152;2023-04-23T03:37:32;100.28;;;45.17;;
51288;SDS011;37372;52.294;5.152;2023-04-23T03:40:05;98.95;;;44.22;;
51288;SDS011;37372;52.294;5.152;2023-04-23T03:42:37;99.13;;;48.67;;
51288;SDS011;37372;52.294;5.152;2023-04-23T03:45:06;95.53;;;45.67;;
51288;SDS011;37372;52.294;5.152;2023-04-23T03:47:38;90.80;;;43.65;;
51288;SDS011;37372;52.294;5.152;2023-04-23T03:50:06;88.80;;;43.55;;
51288;SDS011;37372;52.294;5.152;2023-04-23T03:52:38;102.03;;;44.85;;
51288;SDS011;37372;52.294;5.152;2023-04-23T03:55:06;98.90;;;43.00;;
51288;SDS011;37372;52.294;5.152;2023-04-23T03:57:39;84.90;;;44.10;;
51288;SDS011;37372;52.294;5.152;2023-04-23T04:00:08;88.07;;;44.00;;
51288;SDS011;37372;52.294;5.152;2023-04-23T04:02:39;90.97;;;44.30;;
51288;SDS011;37372;52.294;5.152;2023-04-23T04:05:11;85.97;;;42.28;;
51288;SDS011;37372;52.294;5.152;2023-04-23T04:07:39;89.18;;;42.70;;
51288;SDS011;37372;52.294;5.152;2023-04-23T04:10:06;90.72;;;41.17;;
51288;SDS011;37372;52.294;5.152;2023-04-23T04:12:32;98.40;;;43.65;;
51288;SDS011;37372;52.294;5.152;2023-04-23T04:14:58;92.50;;;42.05;;
51288;SDS011;37372;52.294;5.152;2023-04-23T04:17:23;86.65;;;42.25;;
51288;SDS011;37372;52.294;5.152;2023-04-23T04:19:49;92.10;;;44.13;;
51288;SDS011;37372;52.294;5.152;2023-04-23T04:22:14;91.22;;;44.03;;
51288;SDS011;37372;52.294;5.152;2023-04-23T04:24:40;99.07;;;45.05;;
51288;SDS011;37372;52.294;5.152;2023-04-23T04:27:06;94.78;;;43.83;;
51288;SDS011;37372;52.294;5.152;2023-04-23T04:29:32;93.18;;;43.55;;
51288;SDS011;37372;52.294;5.152;2023-04-23T04:31:58;98.72;;;43.75;;
51288;SDS011;37372;52.294;5.152;2023-04-23T04:34:25;99.68;;;45.97;;
51288;SDS011;37372;52.294;5.152;2023-04-23T04:36:52;87.43;;;44.35;;
51288;SDS011;37372;52.294;5.152;2023-04-23T04:39:18;89.80;;;43.28;;
51288;SDS011;37372;52.294;5.152;2023-04-23T04:41:45;92.45;;;45.58;;
51288;SDS011;37372;52.294;5.152;2023-04-23T04:44:12;93.55;;;44.08;;
51288;SDS011;37372;52.294;5.152;2023-04-23T04:46:41;90.22;;;43.30;;
51288;SDS011;37372;52.294;5.152;2023-04-23T04:49:07;98.53;;;44.40;;
51288;SDS011;37372;52.294;5.152;2023-04-23T04:51:37;87.18;;;42.40;;
51288;SDS011;37372;52.294;5.152;2023-04-23T04:54:05;86.82;;;42.92;;
51288;SDS011;37372;52.294;5.152;2023-04-23T04:56:31;85.25;;;41.13;;
51288;SDS011;37372;52.294;5.152;2023-04-23T04:58:59;83.03;;;41.35;;
51288;SDS011;37372;52.294;5.152;2023-04-23T05:01:27;82.90;;;41.25;;
51288;SDS011;37372;52.294;5.152;2023-04-23T05:03:56;80.68;;;42.45;;
51288;SDS011;37372;52.294;5.152;2023-04-23T05:06:22;79.57;;;41.78;;
51288;SDS011;37372;52.294;5.152;2023-04-23T05:08:49;80.55;;;41.33;;
51288;SDS011;37372;52.294;5.152;2023-04-23T05:11:16;76.93;;;40.42;;
51288;SDS011;37372;52.294;5.152;2023-04-23T05:13:43;85.30;;;41.65;;
51288;SDS011;37372;52.294;5.152;2023-04-23T05:16:09;68.65;;;37.78;;
51288;SDS011;37372;52.294;5.152;2023-04-23T05:18:38;77.18;;;38.17;;
51288;SDS011;37372;52.294;5.152;2023-04-23T05:21:04;76.30;;;38.58;;
51288;SDS011;37372;52.294;5.152;2023-04-23T05:23:31;76.60;;;40.08;;
51288;SDS011;37372;52.294;5.152;2023-04-23T05:26:02;75.53;;;40.45;;
51288;SDS011;37372;52.294;5.152;2023-04-23T05:28:28;80.80;;;40.03;;
51288;SDS011;37372;52.294;5.152;2023-04-23T05:30:55;76.55;;;39.65;;
51288;SDS011;37372;52.294;5.152;2023-04-23T05:33:22;80.68;;;40.90;;
51288;SDS011;37372;52.294;5.152;2023-04-23T05:35:47;72.07;;;38.10;;
51288;SDS011;37372;52.294;5.152;2023-04-23T05:38:13;73.97;;;38.97;;
51288;SDS011;37372;52.294;5.152;2023-04-23T05:40:38;69.95;;;38.05;;
51288;SDS011;37372;52.294;5.152;2023-04-23T05:43:04;65.57;;;37.53;;
51288;SDS011;37372;52.294;5.152;2023-04-23T05:45:33;69.78;;;38.38;;
51288;SDS011;37372;52.294;5.152;2023-04-23T05:48:02;67.22;;;37.22;;
51288;SDS011;37372;52.294;5.152;2023-04-23T05:50:30;76.38;;;37.30;;
51288;SDS011;37372;52.294;5.152;2023-04-23T05:52:59;69.65;;;38.03;;
51288;SDS011;37372;52.294;5.152;2023-04-23T05:55:31;61.22;;;35.90;;
51288;SDS011;37372;52.294;5.152;2023-04-23T05:58:00;64.38;;;38.83;;
51288;SDS011;37372;52.294;5.152;2023-04-23T06:00:33;63.60;;;36.90;;
51288;SDS011;37372;52.294;5.152;2023-04-23T06:03:08;61.47;;;37.33;;
51288;SDS011;37372;52.294;5.152;2023-04-23T06:05:34;64.13;;;35.10;;
51288;SDS011;37372;52.294;5.152;2023-04-23T06:08:06;55.63;;;33.58;;
51288;SDS011;37372;52.294;5.152;2023-04-23T06:10:36;54.83;;;34.45;;
51288;SDS011;37372;52.294;5.152;2023-04-23T06:13:06;54.83;;;32.17;;
51288;SDS011;37372;52.294;5.152;2023-04-23T06:15:35;51.10;;;32.83;;
51288;SDS011;37372;52.294;5.152;2023-04-23T06:18:08;51.40;;;31.77;;
51288;SDS011;37372;52.294;5.152;2023-04-23T06:20:38;50.15;;;31.40;;
51288;SDS011;37372;52.294;5.152;2023-04-23T06:23:11;51.50;;;31.55;;
51288;SDS011;37372;52.294;5.152;2023-04-23T06:25:39;48.45;;;31.17;;
51288;SDS011;37372;52.294;5.152;2023-04-23T06:28:10;49.08;;;29.92;;
51288;SDS011;37372;52.294;5.152;2023-04-23T06:30:38;45.93;;;30.07;;
51288;SDS011;37372;52.294;5.152;2023-04-23T06:33:08;49.10;;;29.40;;
51288;SDS011;37372;52.294;5.152;2023-04-23T06:35:42;44.53;;;28.08;;
51288;SDS011;37372;52.294;5.152;2023-04-23T06:38:13;46.53;;;28.30;;
51288;SDS011;37372;52.294;5.152;2023-04-23T06:40:39;44.85;;;29.77;;
51288;SDS011;37372;52.294;5.152;2023-04-23T06:43:18;40.65;;;26.02;;
51288;SDS011;37372;52.294;5.152;2023-04-23T06:45:47;46.20;;;28.52;;
51288;SDS011;37372;52.294;5.152;2023-04-23T06:48:17;44.42;;;28.95;;
51288;SDS011;37372;52.294;5.152;2023-04-23T06:50:46;40.13;;;26.15;;
51288;SDS011;37372;52.294;5.152;2023-04-23T06:53:15;42.47;;;28.10;;
51288;SDS011;37372;52.294;5.152;2023-04-23T06:55:42;36.90;;;25.17;;
51288;SDS011;37372;52.294;5.152;2023-04-23T06:58:08;33.17;;;23.85;;
51288;SDS011;37372;52.294;5.152;2023-04-23T07:00:56;40.97;;;25.13;;
51288;SDS011;37372;52.294;5.152;2023-04-23T07:03:24;40.08;;;26.08;;
51288;SDS011;37372;52.294;5.152;2023-04-23T07:05:51;37.33;;;24.08;;
51288;SDS011;37372;52.294;5.152;2023-04-23T07:08:20;36.75;;;23.25;;
51288;SDS011;37372;52.294;5.152;2023-04-23T07:10:46;32.80;;;20.40;;
51288;SDS011;37372;52.294;5.152;2023-04-23T07:13:15;29.60;;;20.00;;
51288;SDS011;37372;52.294;5.152;2023-04-23T07:15:45;33.78;;;21.17;;
51288;SDS011;37372;52.294;5.152;2023-04-23T07:18:22;30.20;;;20.83;;
51288;SDS011;37372;52.294;5.152;2023-04-23T07:20:51;23.77;;;16.67;;
51288;SDS011;37372;52.294;5.152;2023-04-23T07:23:26;21.10;;;14.35;;
51288;SDS011;37372;52.294;5.152;2023-04-23T07:25:52;22.08;;;15.63;;
51288;SDS011;37372;52.294;5.152;2023-04-23T07:28:24;22.95;;;14.45;;
51288;SDS011;37372;52.294;5.152;2023-04-23T07:30:56;23.83;;;13.80;;
51288;SDS011;37372;52.294;5.152;2023-04-23T07:33:25;17.55;;;13.00;;
51288;SDS011;37372;52.294;5.152;2023-04-23T07:35:52;25.33;;;14.43;;
51288;SDS011;37372;52.294;5.152;2023-04-23T07:38:22;20.70;;;14.60;;
51288;SDS011;37372;52.294;5.152;2023-04-23T07:40:54;21.83;;;12.68;;
51288;SDS011;37372;52.294;5.152;2023-04-23T07:43:26;18.80;;;13.02;;
51288;SDS011;37372;52.294;5.152;2023-04-23T07:45:55;19.92;;;11.80;;
51288;SDS011;37372;52.294;5.152;2023-04-23T07:48:26;20.65;;;12.77;;
51288;SDS011;37372;52.294;5.152;2023-04-23T07:53:24;18.42;;;10.60;;
51288;SDS011;37372;52.294;5.152;2023-04-23T07:55:58;17.20;;;10.27;;
51288;SDS011;37372;52.294;5.152;2023-04-23T07:58:28;15.10;;;8.75;;
51288;SDS011;37372;52.294;5.152;2023-04-23T08:00:57;16.58;;;9.48;;
51288;SDS011;37372;52.294;5.152;2023-04-23T08:03:29;13.10;;;8.35;;
51288;SDS011;37372;52.294;5.152;2023-04-23T08:06:01;16.25;;;8.20;;
51288;SDS011;37372;52.294;5.152;2023-04-23T08:08:33;18.85;;;9.27;;
51288;SDS011;37372;52.294;5.152;2023-04-23T08:11:01;13.63;;;8.85;;
51288;SDS011;37372;52.294;5.152;2023-04-23T08:13:33;13.02;;;9.15;;
51288;SDS011;37372;52.294;5.152;2023-04-23T08:16:00;17.42;;;8.32;;
51288;SDS011;37372;52.294;5.152;2023-04-23T08:18:34;15.65;;;9.05;;
51288;SDS011;37372;52.294;5.152;2023-04-23T08:21:01;15.25;;;8.43;;
51288;SDS011;37372;52.294;5.152;2023-04-23T08:23:33;13.88;;;7.03;;
51288;SDS011;37372;52.294;5.152;2023-04-23T08:26:01;15.68;;;7.15;;
51288;SDS011;37372;52.294;5.152;2023-04-23T08:28:37;12.65;;;7.13;;
51288;SDS011;37372;52.294;5.152;2023-04-23T08:31:05;17.73;;;8.93;;
51288;SDS011;37372;52.294;5.152;2023-04-23T08:33:35;13.30;;;7.13;;
51288;SDS011;37372;52.294;5.152;2023-04-23T08:36:04;14.50;;;6.30;;
51288;SDS011;37372;52.294;5.152;2023-04-23T08:38:35;13.77;;;6.72;;
51288;SDS011;37372;52.294;5.152;2023-04-23T08:41:07;12.30;;;6.72;;
51288;SDS011;37372;52.294;5.152;2023-04-23T08:44:11;17.10;;;8.68;;
51288;SDS011;37372;52.294;5.152;2023-04-23T08:46:49;14.27;;;6.35;;
51288;SDS011;37372;52.294;5.152;2023-04-23T08:49:24;12.35;;;7.07;;
51288;SDS011;37372;52.294;5.152;2023-04-23T08:51:56;12.85;;;6.00;;
51288;SDS011;37372;52.294;5.152;2023-04-23T08:54:34;9.20;;;5.40;;
51288;SDS011;37372;52.294;5.152;2023-04-23T08:57:05;11.70;;;5.18;;
51288;SDS011;37372;52.294;5.152;2023-04-23T08:59:32;9.32;;;4.68;;
51288;SDS011;37372;52.294;5.152;2023-04-23T09:01:59;12.90;;;5.40;;
51288;SDS011;37372;52.294;5.152;2023-04-23T09:04:31;15.48;;;6.07;;
51288;SDS011;37372;52.294;5.152;2023-04-23T09:06:58;16.73;;;5.78;;
51288;SDS011;37372;52.294;5.152;2023-04-23T09:09:28;13.93;;;4.93;;
51288;SDS011;37372;52.294;5.152;2023-04-23T09:11:55;8.98;;;4.20;;
51288;SDS011;37372;52.294;5.152;2023-04-23T09:14:23;14.35;;;4.65;;
51288;SDS011;37372;52.294;5.152;2023-04-23T09:16:52;10.95;;;3.40;;
51288;SDS011;37372;52.294;5.152;2023-04-23T09:19:18;15.05;;;4.82;;
51288;SDS011;37372;52.294;5.152;2023-04-23T09:21:54;8.10;;;3.72;;
51288;SDS011;37372;52.294;5.152;2023-04-23T09:24:24;10.20;;;4.15;;
51288;SDS011;37372;52.294;5.152;2023-04-23T09:26:56;11.40;;;4.47;;
51288;SDS011;37372;52.294;5.152;2023-04-23T09:29:29;8.73;;;3.95;;
51288;SDS011;37372;52.294;5.152;2023-04-23T09:32:05;13.00;;;4.18;;
51288;SDS011;37372;52.294;5.152;2023-04-23T09:34:33;14.30;;;4.50;;
51288;SDS011;37372;52.294;5.152;2023-04-23T09:37:03;10.32;;;3.83;;
51288;SDS011;37372;52.294;5.152;2023-04-23T09:39:32;13.85;;;3.22;;
51288;SDS011;37372;52.294;5.152;2023-04-23T09:42:03;17.95;;;3.83;;
51288;SDS011;37372;52.294;5.152;2023-04-23T09:44:35;15.52;;;3.65;;
51288;SDS011;37372;52.294;5.152;2023-04-23T09:47:06;9.80;;;3.70;;
51288;SDS011;37372;52.294;5.152;2023-04-23T09:49:46;13.00;;;3.40;;
51288;SDS011;37372;52.294;5.152;2023-04-23T09:52:12;8.48;;;3.30;;
51288;SDS011;37372;52.294;5.152;2023-04-23T09:54:38;9.30;;;3.42;;
51288;SDS011;37372;52.294;5.152;2023-04-23T09:57:04;13.63;;;4.53;;
51288;SDS011;37372;52.294;5.152;2023-04-23T09:59:39;8.23;;;3.40;;
51288;SDS011;37372;52.294;5.152;2023-04-23T10:02:08;7.78;;;3.83;;
51288;SDS011;37372;52.294;5.152;2023-04-23T10:04:38;11.73;;;3.67;;
51288;SDS011;37372;52.294;5.152;2023-04-23T10:07:04;12.05;;;3.33;;
51288;SDS011;37372;52.294;5.152;2023-04-23T10:09:35;9.23;;;3.15;;
51288;SDS011;37372;52.294;5.152;2023-04-23T10:12:06;11.68;;;3.20;;
51288;SDS011;37372;52.294;5.152;2023-04-23T10:14:36;14.25;;;3.33;;
51288;SDS011;37372;52.294;5.152;2023-04-23T10:17:05;10.85;;;3.13;;
51288;SDS011;37372;52.294;5.152;2023-04-23T10:19:33;10.15;;;3.80;;
51288;SDS011;37372;52.294;5.152;2023-04-23T10:22:07;8.73;;;1.98;;
51288;SDS011;37372;52.294;5.152;2023-04-23T10:24:40;11.02;;;3.25;;
51288;SDS011;37372;52.294;5.152;2023-04-23T10:29:38;11.98;;;2.97;;
51288;SDS011;37372;52.294;5.152;2023-04-23T10:32:08;7.88;;;2.60;;
51288;SDS011;37372;52.294;5.152;2023-04-23T10:34:36;7.90;;;2.40;;
51288;SDS011;37372;52.294;5.152;2023-04-23T10:37:12;6.88;;;1.92;;
51288;SDS011;37372;52.294;5.152;2023-04-23T10:39:45;7.38;;;2.50;;
51288;SDS011;37372;52.294;5.152;2023-04-23T10:42:15;14.80;;;2.65;;
51288;SDS011;37372;52.294;5.152;2023-04-23T10:44:44;7.88;;;2.40;;
51288;SDS011;37372;52.294;5.152;2023-04-23T10:47:13;10.73;;;2.50;;
51288;SDS011;37372;52.294;5.152;2023-04-23T10:49:45;8.63;;;2.20;;
51288;SDS011;37372;52.294;5.152;2023-04-23T10:52:16;10.88;;;2.95;;
51288;SDS011;37372;52.294;5.152;2023-04-23T10:54:47;8.80;;;2.80;;
51288;SDS011;37372;52.294;5.152;2023-04-23T10:57:21;11.00;;;3.40;;
51288;SDS011;37372;52.294;5.152;2023-04-23T10:59:53;6.85;;;1.88;;
51288;SDS011;37372;52.294;5.152;2023-04-23T11:02:23;7.25;;;2.30;;
51288;SDS011;37372;52.294;5.152;2023-04-23T11:04:56;7.93;;;2.03;;
51288;SDS011;37372;52.294;5.152;2023-04-23T11:07:30;10.90;;;2.10;;
51288;SDS011;37372;52.294;5.152;2023-04-23T11:10:00;11.63;;;2.40;;
51288;SDS011;37372;52.294;5.152;2023-04-23T11:12:37;8.30;;;2.10;;
51288;SDS011;37372;52.294;5.152;2023-04-23T11:15:17;12.02;;;2.05;;
51288;SDS011;37372;52.294;5.152;2023-04-23T11:20:21;6.32;;;2.10;;
51288;SDS011;37372;52.294;5.152;2023-04-23T11:22:49;8.93;;;2.10;;
51288;SDS011;37372;52.294;5.152;2023-04-23T11:25:27;7.75;;;1.80;;
51288;SDS011;37372;52.294;5.152;2023-04-23T11:27:54;9.43;;;1.85;;
51288;SDS011;37372;52.294;5.152;2023-04-23T11:30:26;7.07;;;1.58;;
51288;SDS011;37372;52.294;5.152;2023-04-23T11:33:03;6.70;;;1.75;;
51288;SDS011;37372;52.294;5.152;2023-04-23T11:35:30;8.52;;;1.77;;
51288;SDS011;37372;52.294;5.152;2023-04-23T11:38:06;10.27;;;2.88;;
51288;SDS011;37372;52.294;5.152;2023-04-23T11:40:33;9.30;;;2.05;;
51288;SDS011;37372;52.294;5.152;2023-04-23T11:42:59;15.00;;;2.33;;
51288;SDS011;37372;52.294;5.152;2023-04-23T11:45:28;13.07;;;2.47;;
51288;SDS011;37372;52.294;5.152;2023-04-23T11:47:55;5.60;;;1.65;;
51288;SDS011;37372;52.294;5.152;2023-04-23T11:50:33;13.15;;;1.98;;
51288;SDS011;37372;52.294;5.152;2023-04-23T11:53:09;6.00;;;1.48;;
51288;SDS011;37372;52.294;5.152;2023-04-23T11:55:35;10.20;;;1.60;;
51288;SDS011;37372;52.294;5.152;2023-04-23T11:58:08;9.23;;;1.77;;
51288;SDS011;37372;52.294;5.152;2023-04-23T12:00:41;6.65;;;1.42;;
51288;SDS011;37372;52.294;5.152;2023-04-23T12:03:07;5.53;;;1.50;;
51288;SDS011;37372;52.294;5.152;2023-04-23T12:05:39;8.60;;;2.30;;
51288;SDS011;37372;52.294;5.152;2023-04-23T12:08:07;6.57;;;1.45;;
51288;SDS011;37372;52.294;5.152;2023-04-23T12:11:02;5.97;;;1.60;;
51288;SDS011;37372;52.294;5.152;2023-04-23T12:13:32;4.88;;;1.55;;
51288;SDS011;37372;52.294;5.152;2023-04-23T12:15:58;5.47;;;1.63;;
51288;SDS011;37372;52.294;5.152;2023-04-23T12:18:26;6.25;;;1.58;;
51288;SDS011;37372;52.294;5.152;2023-04-23T12:21:05;4.57;;;1.10;;
51288;SDS011;37372;52.294;5.152;2023-04-23T12:23:34;8.43;;;1.63;;
51288;SDS011;37372;52.294;5.152;2023-04-23T12:26:01;7.47;;;1.90;;
51288;SDS011;37372;52.294;5.152;2023-04-23T12:28:27;6.00;;;2.08;;
51288;SDS011;37372;52.294;5.152;2023-04-23T12:31:29;5.93;;;1.33;;
51288;SDS011;37372;52.294;5.152;2023-04-23T12:42:33;7.22;;;1.25;;
51288;SDS011;37372;52.294;5.152;2023-04-23T12:45:13;8.35;;;1.75;;
51288;SDS011;37372;52.294;5.152;2023-04-23T12:47:40;4.53;;;1.63;;
51288;SDS011;37372;52.294;5.152;2023-04-23T12:50:21;6.05;;;1.30;;
51288;SDS011;37372;52.294;5.152;2023-04-23T12:52:46;7.40;;;1.30;;
51288;SDS011;37372;52.294;5.152;2023-04-23T12:55:12;7.45;;;2.22;;
51288;SDS011;37372;52.294;5.152;2023-04-23T12:57:37;3.42;;;1.30;;
51288;SDS011;37372;52.294;5.152;2023-04-23T13:00:02;6.72;;;2.30;;
51288;SDS011;37372;52.294;5.152;2023-04-23T13:02:42;6.80;;;1.90;;
51288;SDS011;37372;52.294;5.152;2023-04-23T13:05:08;7.65;;;1.70;;
51288;SDS011;37372;52.294;5.152;2023-04-23T13:07:37;4.43;;;1.23;;
51288;SDS011;37372;52.294;5.152;2023-04-23T13:10:02;4.95;;;1.30;;
51288;SDS011;37372;52.294;5.152;2023-04-23T13:12:37;9.38;;;1.52;;
51288;SDS011;37372;52.294;5.152;2023-04-23T13:17:57;4.05;;;1.17;;
51288;SDS011;37372;52.294;5.152;2023-04-23T13:20:23;4.47;;;1.20;;
51288;SDS011;37372;52.294;5.152;2023-04-23T13:22:50;4.68;;;1.42;;
51288;SDS011;37372;52.294;5.152;2023-04-23T13:25:26;5.57;;;1.52;;
51288;SDS011;37372;52.294;5.152;2023-04-23T13:27:52;8.88;;;1.50;;
51288;SDS011;37372;52.294;5.152;2023-04-23T13:30:18;5.85;;;1.35;;
51288;SDS011;37372;52.294;5.152;2023-04-23T13:32:52;5.57;;;1.67;;
51288;SDS011;37372;52.294;5.152;2023-04-23T13:35:21;4.40;;;1.08;;
51288;SDS011;37372;52.294;5.152;2023-04-23T13:37:50;4.60;;;1.30;;
51288;SDS011;37372;52.294;5.152;2023-04-23T13:40:25;6.05;;;1.38;;
51288;SDS011;37372;52.294;5.152;2023-04-23T13:42:50;7.05;;;1.30;;
51288;SDS011;37372;52.294;5.152;2023-04-23T13:45:22;5.18;;;1.20;;
51288;SDS011;37372;52.294;5.152;2023-04-23T13:47:53;9.20;;;1.65;;
51288;SDS011;37372;52.294;5.152;2023-04-23T13:50:29;6.50;;;1.05;;
51288;SDS011;37372;52.294;5.152;2023-04-23T13:52:55;4.32;;;1.25;;
51288;SDS011;37372;52.294;5.152;2023-04-23T13:55:29;5.45;;;0.90;;
51288;SDS011;37372;52.294;5.152;2023-04-23T14:00:25;7.03;;;1.38;;
51288;SDS011;37372;52.294;5.152;2023-04-23T14:02:57;6.13;;;1.77;;
51288;SDS011;37372;52.294;5.152;2023-04-23T14:05:26;7.32;;;1.42;;
51288;SDS011;37372;52.294;5.152;2023-04-23T14:07:55;6.53;;;1.67;;
51288;SDS011;37372;52.294;5.152;2023-04-23T14:10:25;5.68;;;1.83;;
51288;SDS011;37372;52.294;5.152;2023-04-23T14:12:51;8.07;;;1.50;;
51288;SDS011;37372;52.294;5.152;2023-04-23T14:18:17;8.32;;;1.95;;
51288;SDS011;37372;52.294;5.152;2023-04-23T14:20:46;5.22;;;1.27;;
51288;SDS011;37372;52.294;5.152;2023-04-23T14:25:46;5.30;;;1.42;;
51288;SDS011;37372;52.294;5.152;2023-04-23T14:28:55;4.53;;;1.98;;
51288;SDS011;37372;52.294;5.152;2023-04-23T14:31:05;6.97;;;1.85;;
51288;SDS011;37372;52.294;5.152;2023-04-23T14:33:31;14.88;;;2.38;;
51288;SDS011;37372;52.294;5.152;2023-04-23T14:35:59;6.15;;;2.50;;
51288;SDS011;37372;52.294;5.152;2023-04-23T14:38:27;4.55;;;2.03;;
51288;SDS011;37372;52.294;5.152;2023-04-23T14:40:54;7.43;;;1.90;;
51288;SDS011;37372;52.294;5.152;2023-04-23T14:43:35;7.85;;;2.13;;
51288;SDS011;37372;52.294;5.152;2023-04-23T14:46:02;11.77;;;3.83;;
51288;SDS011;37372;52.294;5.152;2023-04-23T14:48:27;5.03;;;1.92;;
51288;SDS011;37372;52.294;5.152;2023-04-23T14:50:58;6.43;;;1.85;;
51288;SDS011;37372;52.294;5.152;2023-04-23T14:53:24;7.43;;;2.85;;
51288;SDS011;37372;52.294;5.152;2023-04-23T14:55:55;10.60;;;3.08;;
51288;SDS011;37372;52.294;5.152;2023-04-23T14:58:21;5.25;;;1.80;;
51288;SDS011;37372;52.294;5.152;2023-04-23T15:00:47;6.88;;;1.90;;
51288;SDS011;37372;52.294;5.152;2023-04-23T15:03:14;6.13;;;1.85;;
51288;SDS011;37372;52.294;5.152;2023-04-23T15:06:02;7.93;;;2.17;;
51288;SDS011;37372;52.294;5.152;2023-04-23T15:08:40;8.48;;;2.47;;
51288;SDS011;37372;52.294;5.152;2023-04-23T15:11:39;9.50;;;2.20;;
51288;SDS011;37372;52.294;5.152;2023-04-23T15:16:56;10.82;;;2.00;;
51288;SDS011;37372;52.294;5.152;2023-04-23T15:19:21;12.88;;;2.17;;
51288;SDS011;37372;52.294;5.152;2023-04-23T15:21:53;9.70;;;2.38;;